This is the latest recevied weather packets stored in our database for station/object WA9AFM. If no packets are shown the sender has not sent any weather packets the latest 10 day(s).
| Time | Temp. | Humidity | Pressure | Rain* | Wind** | Luminosity | Snow |
|---|---|---|---|---|---|---|---|
| 1787946240 | 37.78° C | 24% | 1011.6 hPa | 0 mm | - | - | - |
| 1787945339 | 36.67° C | 26% | 1011.8 hPa | 0 mm | - | - | - |
| 1787944438 | 36.67° C | 26% | 1012 hPa | 0 mm | - | - | - |
| 1787943539 | 37.22° C | 27% | 1012.2 hPa | 0 mm | - | - | - |
| 1787942639 | 36.67° C | 28% | 1012.3 hPa | 0 mm | - | - | - |
| 1787941739 | 36.67° C | 27% | 1012.4 hPa | 0 mm | - | - | - |
| 1787940839 | 37.22° C | 28% | 1012.7 hPa | 0 mm | - | - | - |
| 1787939938 | 37.22° C | 23% | 1012.8 hPa | 0 mm | - | - | - |
| 1787939039 | 36.67° C | 26% | 1013 hPa | 0 mm | - | - | - |
| 1787938138 | 36.11° C | 28% | 1013.2 hPa | 0 mm | - | - | - |
| 1787937240 | 35.56° C | 34% | 1013.3 hPa | 0 mm | - | - | - |
| 1787936339 | 35° C | 33% | 1013.4 hPa | 0 mm | - | - | - |
| 1787935438 | 34.44° C | 38% | 1013.5 hPa | 0 mm | - | - | - |
| 1787934539 | 34.44° C | 40% | 1013.6 hPa | 0 mm | - | - | - |
| 1787933639 | 33.89° C | 40% | 1013.8 hPa | 0 mm | - | - | - |
| 1787932738 | 33.33° C | 41% | 1013.7 hPa | 0 mm | - | - | - |
| 1787931839 | 32.78° C | 44% | 1013.6 hPa | 0 mm | - | - | - |
| 1787930938 | 32.22° C | 45% | 1013.7 hPa | 0 mm | - | - | - |
| 1787930040 | 31.11° C | 48% | 1013.6 hPa | 0 mm | - | - | - |
| 1787929139 | 29.44° C | 50% | 1013.6 hPa | 0 mm | - | - | - |
| 1787928238 | 28.33° C | 53% | 1013.8 hPa | 0 mm | - | - | - |
| 1787927338 | 27.78° C | 54% | 1013.9 hPa | 0 mm | - | - | - |
| 1787926438 | 26.11° C | 56% | 1013.7 hPa | 0 mm | - | - | - |
| 1787925539 | 25° C | 59% | 1013.9 hPa | 0 mm | - | - | - |
| 1787924638 | 23.33° C | 65% | 1013.8 hPa | 0 mm | - | - | - |
* Rain latest hour (hover to see other rain measurements)
** Current wind speed in m/s (hover to see current wind gust speed)